createdAt,value
2022-09-12T00:00:23.588Z,29.45
2022-09-12T00:02:54.457Z,29.23
2022-09-12T00:05:22.550Z,24.10
2022-09-12T00:07:50.446Z,22.35
2022-09-12T00:10:19.435Z,26.95
2022-09-12T00:12:47.071Z,25.63
2022-09-12T00:15:16.141Z,26.42
2022-09-12T00:17:43.795Z,28.38
2022-09-12T00:20:12.374Z,27.08
2022-09-12T00:22:40.030Z,28.65
2022-09-12T00:25:08.831Z,21.15
2022-09-12T00:27:36.442Z,22.05
2022-09-12T00:30:04.604Z,23.15
2022-09-12T00:32:33.607Z,29.67
2022-09-12T00:35:02.781Z,26.65
2022-09-12T00:37:31.195Z,24.08
2022-09-12T00:39:58.845Z,27.33
2022-09-12T00:42:26.486Z,24.27
2022-09-12T00:44:54.452Z,32.08
2022-09-12T00:47:26.239Z,30.35
2022-09-12T00:50:00.949Z,34.15
2022-09-12T00:52:31.687Z,32.13
2022-09-12T00:55:03.819Z,29.98
2022-09-12T00:57:36.756Z,31.65
2022-09-12T01:00:13.660Z,33.50
2022-09-12T01:02:42.197Z,25.60
2022-09-12T01:05:12.091Z,30.88
2022-09-12T01:07:41.335Z,30.40
2022-09-12T01:10:10.692Z,28.95
2022-09-12T01:12:41.082Z,32.05
2022-09-12T01:15:10.081Z,28.15
2022-09-12T01:17:52.270Z,22.67
2022-09-12T01:20:47.246Z,24.80
2022-09-12T01:23:38.418Z,30.88
2022-09-12T01:26:24.363Z,34.92
2022-09-12T01:29:14.563Z,26.85
2022-09-12T01:31:52.441Z,28.55
2022-09-12T01:34:28.123Z,32.33
2022-09-12T01:37:04.544Z,29.45
2022-09-12T01:39:41.526Z,24.20
2022-09-12T01:42:14.684Z,28.15
2022-09-12T01:44:51.419Z,29.50
2022-09-12T01:47:25.538Z,38.47
2022-09-12T01:50:01.362Z,33.55
2022-09-12T01:52:32.896Z,35.80
2022-09-12T01:55:09.748Z,34.42
2022-09-12T01:57:42.095Z,35.40
2022-09-12T02:00:13.137Z,28.73
2022-09-12T02:02:48.511Z,24.73
2022-09-12T02:05:21.498Z,33.53
2022-09-12T02:07:52.909Z,30.30
2022-09-12T02:10:26.345Z,32.72
2022-09-12T02:12:59.645Z,34.80
2022-09-12T02:15:33.587Z,29.25
2022-09-12T02:18:06.870Z,27.40
2022-09-12T02:20:47.850Z,28.48
2022-09-12T02:23:20.499Z,29.57
2022-09-12T02:25:52.337Z,29.80
2022-09-12T02:28:24.346Z,26.75
2022-09-12T02:30:58.049Z,31.63
2022-09-12T02:33:31.498Z,32.15
2022-09-12T02:36:05.638Z,31.60
2022-09-12T02:38:41.544Z,23.67
2022-09-12T02:41:09.370Z,23.95
2022-09-12T02:43:37.788Z,26.55
2022-09-12T02:46:07.448Z,21.75
2022-09-12T02:48:41.827Z,33.53
2022-09-12T02:51:09.759Z,32.50
2022-09-12T02:53:38.616Z,29.38
2022-09-12T02:56:12.222Z,29.40
2022-09-12T02:58:40.107Z,31.83
2022-09-12T03:01:14.905Z,28.27
2022-09-12T03:04:01.369Z,25.73
2022-09-12T03:06:36.427Z,23.90
2022-09-12T03:09:13.582Z,29.05
2022-09-12T03:12:04.462Z,32.63
2022-09-12T03:14:46.793Z,29.35
2022-09-12T03:17:25.950Z,27.30
2022-09-12T03:20:02.258Z,26.95
2022-09-12T03:22:34.800Z,28.08
2022-09-12T03:27:37.733Z,33.50
2022-09-12T03:30:06.264Z,33.85
2022-09-12T03:32:45.147Z,33.85
2022-09-12T03:35:15.143Z,36.58
2022-09-12T03:37:42.863Z,34.38
2022-09-12T03:40:12.417Z,39.60
2022-09-12T03:42:40.228Z,30.35
2022-09-12T03:45:09.670Z,32.47
2022-09-12T03:47:37.497Z,37.05
2022-09-12T03:50:06.357Z,28.00
2022-09-12T03:52:35.571Z,29.08
2022-09-12T03:55:03.232Z,25.70
2022-09-12T03:57:30.878Z,23.83
2022-09-12T03:59:58.541Z,33.75
2022-09-12T04:02:26.202Z,27.05
2022-09-12T04:04:53.911Z,27.40
2022-09-12T04:07:21.632Z,23.35
2022-09-12T04:09:50.639Z,30.45
2022-09-12T04:12:18.278Z,29.63
2022-09-12T04:14:46.297Z,37.08
2022-09-12T04:17:15.178Z,28.40
2022-09-12T04:19:42.871Z,25.20
2022-09-12T04:22:10.475Z,31.13
2022-09-12T04:24:38.133Z,30.63
2022-09-12T04:27:07.929Z,26.13
2022-09-12T04:29:35.698Z,28.85
2022-09-12T04:32:04.771Z,27.20
2022-09-12T04:34:32.766Z,24.58
2022-09-12T04:37:00.428Z,24.73
2022-09-12T04:39:28.167Z,24.42
2022-09-12T04:41:55.838Z,27.95
2022-09-12T04:44:24.963Z,31.27
2022-09-12T04:46:52.752Z,39.53
2022-09-12T04:49:20.386Z,29.02
2022-09-12T04:51:48.310Z,27.13
2022-09-12T04:54:17.828Z,30.98
2022-09-12T04:56:47.361Z,24.88
2022-09-12T04:59:16.382Z,28.65
2022-09-12T05:01:45.430Z,24.95
2022-09-12T05:04:14.455Z,24.38
2022-09-12T05:06:43.586Z,24.92
2022-09-12T05:09:14.071Z,26.83
2022-09-12T05:14:34.087Z,25.23
2022-09-12T05:17:04.343Z,24.40
2022-09-12T05:19:32.932Z,25.45
2022-09-12T05:22:02.509Z,26.52
2022-09-12T05:24:30.219Z,32.35
2022-09-12T05:26:57.891Z,24.08
2022-09-12T05:29:25.664Z,27.23
2022-09-12T05:31:53.749Z,27.13
2022-09-12T05:34:23.457Z,30.52
2022-09-12T05:36:51.213Z,26.48
2022-09-12T05:39:18.993Z,24.88
2022-09-12T05:41:47.291Z,24.33
2022-09-12T05:44:15.707Z,29.23
2022-09-12T05:46:46.630Z,26.05
2022-09-12T05:49:14.832Z,34.35
2022-09-12T05:51:45.653Z,31.77
2022-09-12T05:54:19.364Z,33.13
2022-09-12T05:56:48.321Z,33.05
2022-09-12T05:59:18.308Z,26.10
2022-09-12T06:01:46.871Z,27.80
2022-09-12T06:04:14.590Z,30.60
2022-09-12T06:06:45.859Z,29.05
2022-09-12T06:09:15.027Z,25.13
2022-09-12T06:11:43.337Z,29.42
2022-09-12T06:14:12.560Z,29.27
2022-09-12T06:16:40.351Z,28.23
2022-09-12T06:19:13.827Z,30.90
2022-09-12T06:21:43.067Z,29.60
2022-09-12T06:24:10.914Z,31.15
2022-09-12T06:26:38.745Z,27.70
2022-09-12T06:29:06.498Z,29.02
2022-09-12T06:31:36.425Z,28.63
2022-09-12T06:34:06.402Z,28.58
2022-09-12T06:36:37.479Z,29.20
2022-09-12T06:39:08.725Z,27.25
2022-09-12T06:41:38.459Z,28.70
2022-09-12T06:44:12.142Z,28.20
2022-09-12T06:46:39.789Z,26.10
2022-09-12T06:49:08.116Z,26.70
2022-09-12T06:51:36.243Z,26.73
2022-09-12T06:54:05.300Z,26.40
2022-09-12T06:56:34.662Z,26.65
2022-09-12T06:59:02.328Z,27.08
2022-09-12T07:01:31.986Z,26.58
2022-09-12T07:04:01.070Z,25.63
2022-09-12T07:06:31.861Z,26.65
2022-09-12T07:09:00.945Z,24.58
2022-09-12T07:11:32.622Z,24.45
2022-09-12T07:14:03.126Z,18.57
2022-09-12T07:16:31.159Z,25.15
2022-09-12T07:19:00.416Z,26.20
2022-09-12T07:21:28.961Z,25.25
2022-09-12T07:23:57.840Z,26.52
2022-09-12T07:26:26.871Z,24.08
2022-09-12T07:29:07.969Z,26.95
2022-09-12T07:31:45.409Z,27.20
2022-09-12T07:34:13.879Z,28.10
2022-09-12T07:36:41.678Z,26.70
2022-09-12T07:39:09.612Z,29.48
2022-09-12T07:41:37.256Z,28.13
2022-09-12T07:44:06.645Z,26.83
2022-09-12T07:46:35.285Z,28.15
2022-09-12T07:49:04.431Z,27.45
2022-09-12T07:51:32.438Z,28.48
2022-09-12T07:54:00.672Z,28.23
2022-09-12T07:56:32.743Z,27.80
2022-09-12T07:59:02.506Z,27.30
2022-09-12T08:01:30.928Z,27.42
2022-09-12T08:04:00.000Z,27.95
2022-09-12T08:06:33.747Z,27.23
2022-09-12T08:09:01.912Z,26.90
2022-09-12T08:11:30.989Z,26.65
2022-09-12T08:13:59.983Z,28.35
2022-09-12T08:16:29.569Z,28.00
2022-09-12T08:18:57.250Z,28.83
2022-09-12T08:21:26.859Z,26.85
2022-09-12T08:23:57.389Z,26.45
2022-09-12T08:26:25.719Z,26.52
2022-09-12T08:28:54.005Z,25.10
2022-09-12T08:31:23.867Z,25.35
2022-09-12T08:33:52.266Z,24.42
2022-09-12T08:36:22.584Z,25.25
2022-09-12T08:38:59.260Z,23.05
2022-09-12T08:41:31.753Z,21.20
2022-09-12T08:44:31.562Z,19.52
2022-09-12T08:47:24.970Z,18.80
2022-09-12T08:50:00.341Z,17.30
2022-09-12T08:52:32.302Z,16.30
2022-09-12T08:55:01.295Z,14.07
2022-09-12T08:57:30.438Z,14.55
2022-09-12T08:59:58.344Z,16.60
2022-09-12T09:02:43.048Z,19.02
2022-09-12T09:05:20.818Z,18.05
2022-09-12T09:08:10.679Z,18.83
2022-09-12T09:10:48.015Z,17.45
2022-09-12T09:13:48.222Z,17.63
2022-09-12T09:16:23.866Z,17.52
2022-09-12T09:18:53.669Z,18.10
2022-09-12T09:21:30.141Z,18.60
2022-09-12T09:24:04.973Z,18.67
2022-09-12T09:26:43.031Z,16.38
2022-09-12T09:29:18.660Z,16.45
2022-09-12T09:31:49.617Z,19.60
2022-09-12T09:34:22.503Z,18.20
2022-09-12T09:36:52.652Z,16.35
2022-09-12T09:39:44.326Z,17.92
2022-09-12T09:42:23.707Z,19.15
2022-09-12T09:44:54.984Z,19.02
2022-09-12T09:47:23.355Z,17.50
2022-09-12T09:49:51.026Z,18.77
2022-09-12T09:52:25.490Z,16.67
2022-09-12T09:54:57.583Z,19.75
2022-09-12T09:57:41.522Z,19.52
2022-09-12T10:00:27.247Z,21.75
2022-09-12T10:03:15.015Z,19.35
2022-09-12T10:05:48.141Z,18.15
2022-09-12T10:08:22.269Z,16.92
2022-09-12T10:11:02.885Z,16.38
2022-09-12T10:13:36.571Z,17.17
2022-09-12T10:16:08.706Z,16.55
2022-09-12T10:18:43.852Z,15.93
2022-09-12T10:21:23.468Z,16.27
2022-09-12T10:24:00.111Z,16.60
2022-09-12T10:26:33.126Z,15.50
2022-09-12T10:29:11.814Z,14.93
2022-09-12T10:31:48.226Z,14.07
2022-09-12T10:34:32.412Z,14.05
2022-09-12T10:37:04.182Z,10.60
2022-09-12T10:39:32.728Z,10.65
2022-09-12T10:42:00.526Z,9.80
2022-09-12T10:44:30.756Z,10.07
2022-09-12T10:47:01.413Z,8.68
2022-09-12T10:49:31.379Z,8.38
2022-09-12T10:52:18.204Z,8.90
2022-09-12T10:54:46.367Z,7.00
2022-09-12T10:57:58.647Z,5.45
2022-09-12T11:00:30.521Z,6.05
2022-09-12T11:03:16.081Z,5.20
2022-09-12T11:05:55.270Z,5.60
2022-09-12T11:08:39.509Z,5.35
2022-09-12T11:11:23.681Z,5.85
2022-09-12T11:14:06.752Z,5.40
2022-09-12T11:16:43.152Z,5.22
2022-09-12T11:19:30.923Z,5.50
2022-09-12T11:22:13.168Z,5.65
2022-09-12T11:25:07.018Z,5.43
2022-09-12T11:27:46.659Z,5.70
2022-09-12T11:30:17.552Z,5.80
2022-09-12T11:33:08.478Z,7.15
2022-09-12T11:35:45.325Z,6.28
2022-09-12T11:38:29.950Z,5.78
2022-09-12T11:41:01.855Z,6.28
2022-09-12T11:43:40.728Z,6.80
2022-09-12T11:46:16.183Z,7.63
2022-09-12T11:48:49.734Z,6.10
2022-09-12T11:51:21.148Z,6.55
2022-09-12T11:54:01.707Z,6.68
2022-09-12T11:56:29.453Z,6.75
2022-09-12T11:59:04.226Z,5.60
2022-09-12T12:01:43.886Z,6.40
2022-09-12T12:04:16.453Z,6.63
2022-09-12T12:06:53.657Z,8.13
2022-09-12T12:09:21.602Z,8.00
2022-09-12T12:11:56.032Z,8.40
2022-09-12T12:14:26.198Z,7.97
2022-09-12T12:16:54.234Z,7.20
2022-09-12T12:19:36.667Z,5.90
2022-09-12T12:22:17.576Z,5.43
2022-09-12T12:25:08.113Z,4.90
2022-09-12T12:27:51.871Z,4.95
2022-09-12T12:31:03.025Z,6.38
2022-09-12T12:33:53.428Z,6.20
2022-09-12T12:36:38.419Z,5.47
2022-09-12T12:39:48.149Z,4.30
2022-09-12T12:43:02.812Z,4.00
2022-09-12T12:46:10.499Z,4.05
2022-09-12T12:49:09.458Z,3.95
2022-09-12T12:51:42.949Z,3.90
2022-09-12T12:54:48.737Z,3.60
2022-09-12T12:57:48.428Z,3.33
2022-09-12T13:00:33.119Z,2.80
2022-09-12T13:03:07.045Z,2.85
2022-09-12T13:05:42.735Z,4.78
2022-09-12T13:08:25.572Z,6.13
2022-09-12T13:10:57.914Z,3.60
2022-09-12T13:13:32.430Z,2.83
2022-09-12T13:16:00.174Z,3.20
2022-09-12T13:18:34.017Z,3.20
2022-09-12T13:21:11.043Z,2.70
2022-09-12T13:23:38.979Z,3.25
2022-09-12T13:26:12.424Z,3.42
2022-09-12T13:28:40.145Z,3.20
2022-09-12T13:31:19.117Z,3.25
2022-09-12T13:33:49.333Z,3.30
2022-09-12T13:36:38.104Z,3.47
2022-09-12T13:39:21.983Z,3.22
2022-09-12T13:42:43.334Z,2.90
2022-09-12T13:45:15.761Z,2.90
2022-09-12T13:47:45.191Z,2.75
2022-09-12T13:50:20.398Z,2.70
2022-09-12T13:52:53.224Z,2.88
2022-09-12T13:55:30.134Z,3.10
2022-09-12T13:58:00.677Z,3.30
2022-09-12T14:00:31.991Z,3.10
2022-09-12T14:03:17.594Z,2.77
2022-09-12T14:05:53.103Z,3.25
2022-09-12T14:08:24.017Z,3.33
2022-09-12T14:10:52.263Z,3.42
2022-09-12T14:13:23.400Z,3.88
2022-09-12T14:15:53.419Z,4.03
2022-09-12T14:18:27.170Z,3.80
2022-09-12T14:20:56.895Z,4.00
2022-09-12T14:23:30.241Z,3.50
2022-09-12T14:26:00.023Z,3.75
2022-09-12T14:28:30.217Z,3.40
2022-09-12T14:31:00.093Z,3.70
2022-09-12T14:33:27.841Z,3.67
2022-09-12T14:36:12.025Z,3.70
2022-09-12T14:38:46.023Z,3.65
2022-09-12T14:41:21.468Z,3.80
2022-09-12T14:43:54.071Z,3.97
2022-09-12T14:46:28.493Z,4.63
2022-09-12T14:48:58.921Z,3.90
2022-09-12T14:51:29.952Z,3.90
2022-09-12T14:53:59.503Z,3.50
2022-09-12T14:56:41.217Z,3.80
2022-09-12T14:59:27.525Z,3.45
2022-09-12T15:02:18.940Z,3.47
2022-09-12T15:04:48.273Z,3.53
2022-09-12T15:07:16.724Z,3.70
2022-09-12T15:09:47.453Z,4.68
2022-09-12T15:12:15.192Z,6.10
2022-09-12T15:14:42.832Z,5.32
2022-09-12T15:17:10.452Z,6.40
2022-09-12T15:19:38.104Z,5.35
2022-09-12T15:22:06.007Z,5.53
2022-09-12T15:24:33.671Z,5.18
2022-09-12T15:27:02.718Z,4.47
2022-09-12T15:29:30.426Z,4.50
2022-09-12T15:31:58.124Z,4.32
2022-09-12T15:34:25.843Z,4.45
2022-09-12T15:36:53.548Z,4.68
2022-09-12T15:39:21.210Z,4.90
2022-09-12T15:41:49.344Z,4.65
2022-09-12T15:44:20.084Z,3.90
2022-09-12T15:46:48.297Z,4.40
2022-09-12T15:49:15.980Z,4.00
2022-09-12T15:51:43.633Z,4.13
2022-09-12T15:54:13.877Z,4.20
2022-09-12T15:56:41.854Z,4.15
2022-09-12T15:59:09.499Z,3.67
2022-09-12T16:01:38.563Z,3.92
2022-09-12T16:04:23.726Z,4.25
2022-09-12T16:06:51.836Z,8.13
2022-09-12T16:09:19.653Z,4.00
2022-09-12T16:11:47.750Z,4.32
2022-09-12T16:14:16.167Z,4.18
2022-09-12T16:16:46.309Z,3.90
2022-09-12T16:19:13.971Z,3.63
2022-09-12T16:21:41.667Z,4.00
2022-09-12T16:24:09.436Z,4.50
2022-09-12T16:26:37.121Z,4.13
2022-09-12T16:29:05.173Z,4.80
2022-09-12T16:31:40.286Z,4.82
2022-09-12T16:34:09.404Z,5.30
2022-09-12T16:36:37.085Z,5.32
2022-09-12T16:39:05.345Z,4.60
2022-09-12T16:41:33.197Z,4.43
2022-09-12T16:44:00.829Z,4.85
2022-09-12T16:46:29.599Z,5.10
2022-09-12T16:48:59.255Z,5.15
2022-09-12T16:51:31.810Z,4.45
2022-09-12T16:53:59.689Z,4.47
2022-09-12T16:56:27.553Z,3.67
2022-09-12T16:58:55.588Z,3.67
2022-09-12T17:01:25.106Z,3.75
2022-09-12T17:03:54.445Z,3.42
2022-09-12T17:06:22.240Z,3.50
2022-09-12T17:08:52.819Z,3.25
2022-09-12T17:11:22.921Z,3.47
2022-09-12T17:14:07.568Z,3.47
2022-09-12T17:16:39.806Z,3.78
2022-09-12T17:19:13.099Z,3.70
2022-09-12T17:21:40.745Z,3.30
2022-09-12T17:24:09.859Z,3.28
2022-09-12T17:26:37.806Z,3.10
2022-09-12T17:29:05.668Z,3.30
2022-09-12T17:31:33.767Z,3.33
2022-09-12T17:34:06.724Z,3.25
2022-09-12T17:36:34.675Z,3.50
2022-09-12T17:39:03.635Z,3.80
2022-09-12T17:41:33.410Z,3.58
2022-09-12T17:44:02.485Z,3.50
2022-09-12T17:46:34.960Z,3.40
2022-09-12T17:49:04.569Z,3.83
2022-09-12T17:51:32.335Z,4.13
2022-09-12T17:54:02.134Z,4.55
2022-09-12T17:56:32.985Z,4.00
2022-09-12T17:59:01.559Z,20.27
2022-09-12T18:01:48.188Z,6.32
2022-09-12T18:04:16.255Z,4.25
2022-09-12T18:06:48.013Z,3.95
2022-09-12T18:09:17.772Z,4.82
2022-09-12T18:11:48.254Z,4.10
2022-09-12T18:14:17.247Z,3.80
2022-09-12T18:16:45.209Z,3.80
2022-09-12T18:19:13.300Z,3.97
2022-09-12T18:21:41.241Z,4.80
2022-09-12T18:24:10.528Z,4.60
2022-09-12T18:26:38.374Z,4.55
2022-09-12T18:29:08.104Z,4.50
2022-09-12T18:31:35.955Z,4.53
2022-09-12T18:34:05.893Z,4.38
2022-09-12T18:36:33.624Z,4.22
2022-09-12T18:39:01.260Z,4.78
2022-09-12T18:41:29.218Z,5.28
2022-09-12T18:43:58.513Z,4.72
2022-09-12T18:46:28.899Z,4.95
2022-09-12T18:48:57.654Z,5.13
2022-09-12T18:51:31.260Z,5.50
2022-09-12T18:54:00.959Z,5.18
2022-09-12T18:56:32.632Z,5.40
2022-09-12T18:59:01.761Z,5.40
2022-09-12T19:01:32.630Z,5.13
2022-09-12T19:04:00.986Z,5.28
2022-09-12T19:06:30.462Z,5.13
2022-09-12T19:09:01.692Z,5.10
2022-09-12T19:11:31.616Z,5.07
2022-09-12T19:13:59.285Z,5.20
2022-09-12T19:16:28.517Z,5.30
2022-09-12T19:18:58.500Z,5.25
2022-09-12T19:21:28.144Z,5.35
2022-09-12T19:23:57.996Z,5.68
2022-09-12T19:26:26.338Z,6.32
2022-09-12T19:28:55.171Z,9.57
2022-09-12T19:31:23.465Z,15.27
2022-09-12T19:33:52.088Z,7.60
2022-09-12T19:36:43.677Z,6.63
2022-09-12T19:39:11.335Z,5.70
2022-09-12T19:41:39.035Z,5.50
2022-09-12T19:44:06.724Z,5.88
2022-09-12T19:46:34.556Z,5.35
2022-09-12T19:49:02.347Z,5.60
2022-09-12T19:51:31.454Z,5.78
2022-09-12T19:53:59.188Z,6.00
2022-09-12T19:56:26.829Z,5.90
2022-09-12T19:58:56.714Z,7.22
2022-09-12T20:01:28.285Z,6.30
2022-09-12T20:03:56.410Z,5.95
2022-09-12T20:06:24.550Z,5.70
2022-09-12T20:08:53.604Z,5.85
2022-09-12T20:11:25.770Z,5.85
2022-09-12T20:13:54.384Z,5.85
2022-09-12T20:16:26.434Z,6.03
2022-09-12T20:18:56.072Z,6.55
2022-09-12T20:21:30.951Z,6.38
2022-09-12T20:24:03.169Z,6.32
2022-09-12T20:26:31.125Z,5.90
2022-09-12T20:28:58.778Z,5.88
2022-09-12T20:31:27.005Z,5.75
2022-09-12T20:34:14.366Z,6.68
2022-09-12T20:36:42.020Z,6.55
2022-09-12T20:39:14.848Z,6.38
2022-09-12T20:41:42.642Z,6.75
2022-09-12T20:44:10.340Z,6.22
2022-09-12T20:46:38.028Z,6.75
2022-09-12T20:49:05.839Z,6.82
2022-09-12T20:51:34.870Z,6.65
2022-09-12T20:54:04.600Z,6.63
2022-09-12T20:56:34.575Z,7.13
2022-09-12T20:59:02.871Z,6.72
2022-09-12T21:01:31.647Z,6.70
2022-09-12T21:04:00.340Z,6.82
2022-09-12T21:06:28.503Z,6.45
2022-09-12T21:09:00.484Z,5.85
2022-09-12T21:11:29.205Z,5.88
2022-09-12T21:13:57.235Z,5.70
2022-09-12T21:16:25.213Z,5.13
2022-09-12T21:18:57.655Z,4.90
2022-09-12T21:23:55.189Z,4.97
2022-09-12T21:26:24.407Z,4.60
2022-09-12T21:28:52.264Z,4.30
2022-09-12T21:31:19.983Z,4.50
2022-09-12T21:33:47.763Z,4.85
2022-09-12T21:36:15.470Z,4.50
2022-09-12T21:38:43.274Z,4.43
2022-09-12T21:41:12.805Z,4.57
2022-09-12T21:43:42.316Z,4.88
2022-09-12T21:46:10.536Z,4.65
2022-09-12T21:48:38.309Z,4.55
2022-09-12T21:51:06.534Z,4.55
2022-09-12T21:53:34.261Z,4.57
2022-09-12T21:56:02.651Z,5.10
2022-09-12T21:58:30.462Z,5.13
2022-09-12T22:00:59.724Z,4.78
2022-09-12T22:03:27.530Z,4.70
2022-09-12T22:05:58.217Z,5.03
2022-09-12T22:08:26.102Z,4.60
2022-09-12T22:10:53.783Z,5.32
2022-09-12T22:13:21.380Z,5.10
2022-09-12T22:15:51.988Z,5.32
2022-09-12T22:18:20.998Z,5.30
2022-09-12T22:20:48.607Z,4.95
2022-09-12T22:23:33.985Z,5.00
2022-09-12T22:26:02.746Z,5.70
2022-09-12T22:28:32.104Z,5.20
2022-09-12T22:30:59.799Z,5.05
2022-09-12T22:33:28.874Z,5.30
2022-09-12T22:35:56.482Z,6.00
2022-09-12T22:38:26.029Z,5.68
2022-09-12T22:40:53.880Z,5.20
2022-09-12T22:43:21.483Z,5.78
2022-09-12T22:45:49.129Z,5.65
2022-09-12T22:48:17.082Z,5.75
2022-09-12T22:50:46.109Z,6.13
2022-09-12T22:53:13.739Z,5.60
2022-09-12T22:55:41.365Z,6.00
2022-09-12T22:58:08.984Z,5.90
2022-09-12T23:00:36.711Z,6.55
2022-09-12T23:03:04.401Z,6.35
2022-09-12T23:05:32.311Z,7.10
2022-09-12T23:08:01.603Z,6.35
2022-09-12T23:10:29.264Z,6.93
2022-09-12T23:12:57.460Z,6.88
2022-09-12T23:15:25.103Z,6.50
2022-09-12T23:17:52.726Z,6.75
2022-09-12T23:20:20.350Z,6.93
2022-09-12T23:22:48.035Z,6.57
2022-09-12T23:25:17.701Z,6.82
2022-09-12T23:27:45.474Z,6.65
2022-09-12T23:30:13.251Z,6.82
2022-09-12T23:32:40.885Z,6.68
2022-09-12T23:35:08.867Z,7.00
2022-09-12T23:37:36.458Z,7.15
2022-09-12T23:40:04.565Z,6.57
2022-09-12T23:42:33.577Z,7.13
2022-09-12T23:45:01.186Z,19.90
2022-09-12T23:47:28.815Z,9.57
2022-09-12T23:49:56.399Z,7.97
2022-09-12T23:52:23.989Z,6.00
2022-09-12T23:54:51.665Z,5.85
2022-09-12T23:57:19.316Z,6.00
2022-09-12T23:59:48.275Z,6.07
